Time;durP1;ratioP1;P1;durP2;ratioP2;P2;SDS_P1;SDS_P2;PMS_P1;PMS_P2;Temp;Humidity;BMP_temperature;BMP_pressure;BME280_temperature;BME280_humidity;BME280_pressure;Samples;Min_cycle;Max_cycle;Signal;HPM_P1;HPM_P2
2022/04/16 00:01:37;;;;;;;11.57;7.50;;;5.20;85.30;;;;;;4980190;28;20655;-91
2022/04/16 00:04:02;;;;;;;12.17;7.00;;;5.10;85.40;;;;;;4980990;28;20236;-93
2022/04/16 00:06:28;;;;;;;13.10;7.40;;;5.00;85.60;;;;;;4980053;28;20281;-93
2022/04/16 00:08:54;;;;;;;12.03;6.93;;;5.00;85.70;;;;;;4981945;28;20175;-93
2022/04/16 00:11:19;;;;;;;10.23;7.00;;;5.00;85.90;;;;;;4983165;28;20540;-93
2022/04/16 00:13:46;;;;;;;14.67;7.40;;;4.90;85.90;;;;;;4980950;28;20215;-93
2022/04/16 00:16:12;;;;;;;10.87;6.70;;;4.90;85.80;;;;;;4983127;28;20206;-93
2022/04/16 00:18:37;;;;;;;14.00;6.90;;;4.90;85.80;;;;;;4980565;28;20183;-93
2022/04/16 00:21:05;;;;;;;11.40;6.70;;;4.90;85.70;;;;;;4981454;28;20174;-93
2022/04/16 00:23:30;;;;;;;10.10;6.50;;;4.80;85.80;;;;;;4981729;28;20182;-93
2022/04/16 00:25:56;;;;;;;8.80;6.43;;;4.80;85.80;;;;;;4982505;28;20197;-93
2022/04/16 00:28:22;;;;;;;13.43;6.90;;;4.80;86.00;;;;;;4981237;28;20563;-93
2022/04/16 00:30:48;;;;;;;9.47;6.77;;;4.80;86.10;;;;;;4983025;28;20182;-93
2022/04/16 00:33:14;;;;;;;11.73;6.87;;;4.70;86.10;;;;;;4981962;28;20179;-93
2022/04/16 00:35:43;;;;;;;11.13;6.33;;;4.60;86.10;;;;;;4981374;28;20560;-93
2022/04/16 00:38:09;;;;;;;10.83;6.60;;;4.50;86.20;;;;;;4980762;28;20179;-93
2022/04/16 00:40:35;;;;;;;9.07;6.43;;;4.50;86.10;;;;;;4979976;28;20209;-93
2022/04/16 00:43:02;;;;;;;11.17;6.53;;;4.50;86.10;;;;;;4980340;28;20169;-93
2022/04/16 00:45:29;;;;;;;9.10;5.83;;;4.50;86.10;;;;;;4980429;28;20551;-93
2022/04/16 00:47:55;;;;;;;10.43;6.00;;;4.40;86.20;;;;;;4979947;28;20267;-93
2022/04/16 00:50:21;;;;;;;10.60;6.47;;;4.40;86.30;;;;;;4979179;28;20181;-93
2022/04/16 00:52:48;;;;;;;10.73;5.63;;;4.30;86.30;;;;;;4979397;28;20189;-93
2022/04/16 00:55:13;;;;;;;9.53;6.40;;;4.30;86.40;;;;;;4979132;28;20182;-92
2022/04/16 00:57:40;;;;;;;10.17;6.30;;;4.30;86.50;;;;;;4979707;28;20281;-93
2022/04/16 01:00:09;;;;;;;8.87;6.17;;;4.30;86.40;;;;;;4978959;28;20209;-93
2022/04/16 01:02:35;;;;;;;13.57;6.40;;;4.20;86.50;;;;;;4979223;28;20690;-93
2022/04/16 01:05:03;;;;;;;9.30;6.87;;;4.00;86.70;;;;;;4979201;28;20192;-93
2022/04/16 01:07:28;;;;;;;7.57;5.67;;;4.00;86.90;;;;;;4979068;28;20281;-93
2022/04/16 01:09:54;;;;;;;9.73;6.90;;;3.90;87.10;;;;;;4980036;28;20208;-93
2022/04/16 01:12:20;;;;;;;10.67;7.07;;;3.80;87.30;;;;;;4979925;28;20174;-93
2022/04/16 01:14:46;;;;;;;11.43;7.03;;;3.80;87.40;;;;;;4979690;28;20178;-93
2022/04/16 01:17:13;;;;;;;11.80;7.67;;;3.70;87.50;;;;;;4980715;28;20197;-93
2022/04/16 01:19:40;;;;;;;11.23;6.67;;;3.70;87.60;;;;;;4980946;28;20212;-93
2022/04/16 01:22:06;;;;;;;8.17;6.50;;;3.60;87.70;;;;;;4982580;28;20177;-93
2022/04/16 01:24:34;;;;;;;10.47;7.17;;;3.50;87.80;;;;;;4982179;28;20177;-93
2022/04/16 01:27:00;;;;;;;11.53;7.10;;;3.50;87.90;;;;;;4980302;28;20568;-93
2022/04/16 01:29:26;;;;;;;10.07;6.70;;;3.30;87.90;;;;;;4980468;28;20188;-93
2022/04/16 01:31:53;;;;;;;10.60;7.10;;;3.30;88.00;;;;;;4981189;28;20184;-93
2022/04/16 01:34:19;;;;;;;8.93;6.60;;;3.20;88.20;;;;;;4979829;28;20208;-93
2022/04/16 01:36:46;;;;;;;8.43;6.77;;;3.20;88.30;;;;;;4980159;28;20207;-93
2022/04/16 01:39:11;;;;;;;11.03;6.60;;;3.10;88.40;;;;;;4978604;28;20293;-93
2022/04/16 01:41:37;;;;;;;9.73;6.50;;;3.10;88.40;;;;;;4977897;28;20205;-93
2022/04/16 01:44:03;;;;;;;9.07;6.93;;;3.20;88.50;;;;;;4977871;28;20181;-94
2022/04/16 01:46:29;;;;;;;10.73;7.13;;;3.10;88.40;;;;;;4977840;28;20206;-93
2022/04/16 01:48:55;;;;;;;9.87;6.87;;;3.10;88.50;;;;;;4977758;28;20181;-94
2022/04/16 01:51:21;;;;;;;15.13;6.90;;;3.10;88.60;;;;;;4977604;28;20212;-93
2022/04/16 01:53:47;;;;;;;9.77;7.03;;;3.10;88.50;;;;;;4977266;28;20204;-93
2022/04/16 01:56:12;;;;;;;11.80;6.90;;;3.00;88.50;;;;;;4977721;28;20201;-93
2022/04/16 01:58:39;;;;;;;11.90;6.50;;;3.00;88.50;;;;;;4978250;28;20171;-93
2022/04/16 02:01:05;;;;;;;7.67;6.10;;;2.90;88.50;;;;;;4977710;28;20189;-93
2022/04/16 02:03:32;;;;;;;10.90;6.60;;;2.90;88.60;;;;;;4977595;28;20621;-93
2022/04/16 02:05:57;;;;;;;14.20;6.77;;;2.80;88.70;;;;;;4977659;28;20566;-93
2022/04/16 02:08:23;;;;;;;11.10;6.57;;;2.80;88.70;;;;;;4977554;28;20183;-93
2022/04/16 02:10:49;;;;;;;10.30;6.33;;;2.80;88.60;;;;;;4977251;28;20177;-93
2022/04/16 02:13:14;;;;;;;8.93;5.93;;;2.70;88.50;;;;;;4977481;28;20263;-93
2022/04/16 02:15:40;;;;;;;8.60;6.13;;;2.70;88.60;;;;;;4977536;28;20220;-93
2022/04/16 02:18:05;;;;;;;8.30;6.33;;;2.70;88.60;;;;;;4995276;28;20196;-93
2022/04/16 02:20:31;;;;;;;9.53;6.60;;;2.70;88.70;;;;;;4977560;28;20210;-93
2022/04/16 02:22:57;;;;;;;7.77;5.97;;;2.70;88.80;;;;;;4977352;28;20189;-93
2022/04/16 02:25:24;;;;;;;6.87;5.73;;;2.70;88.70;;;;;;4977273;28;20174;-93
2022/04/16 02:27:50;;;;;;;10.60;6.47;;;2.70;88.60;;;;;;4977287;28;20194;-93
2022/04/16 02:30:17;;;;;;;8.00;6.03;;;2.70;88.50;;;;;;4977591;28;20188;-93
2022/04/16 02:32:49;;;;;;;6.90;6.20;;;2.50;88.40;;;;;;4977580;28;20243;-94
2022/04/16 02:35:17;;;;;;;9.23;5.47;;;2.50;88.30;;;;;;4978200;28;20173;-93
2022/04/16 02:37:43;;;;;;;7.73;6.07;;;2.30;88.30;;;;;;4981103;28;20207;-93
2022/04/16 02:40:10;;;;;;;10.07;5.33;;;2.30;88.50;;;;;;4985200;28;20201;-93
2022/04/16 02:42:36;;;;;;;8.90;5.83;;;2.20;88.50;;;;;;4982693;28;20270;-93
2022/04/16 02:47:47;;;;;;;10.13;4.90;;;2.00;88.80;;;;;;5000921;28;20216;-93
2022/04/16 02:50:13;;;;;;;7.43;4.80;;;1.90;89.00;;;;;;4981055;28;20275;-93
2022/04/16 02:52:39;;;;;;;6.40;5.00;;;2.00;89.30;;;;;;4981337;28;20234;-92
2022/04/16 02:55:05;;;;;;;8.97;5.20;;;2.10;89.50;;;;;;4980223;28;20182;-93
2022/04/16 02:57:32;;;;;;;9.60;5.10;;;2.20;89.60;;;;;;4980257;28;20578;-93
2022/04/16 02:59:58;;;;;;;8.30;5.00;;;2.20;89.50;;;;;;4980115;28;20255;-93
2022/04/16 03:02:23;;;;;;;7.43;5.37;;;2.30;89.50;;;;;;4980803;28;20525;-92
2022/04/16 03:04:50;;;;;;;8.37;4.77;;;2.20;89.30;;;;;;4980730;28;20232;-93
2022/04/16 03:07:18;;;;;;;6.37;4.27;;;2.30;89.30;;;;;;4981708;28;20567;-92
2022/04/16 03:09:44;;;;;;;9.20;5.40;;;2.30;89.20;;;;;;4982200;28;20272;-93
2022/04/16 03:12:10;;;;;;;5.30;4.80;;;2.30;89.10;;;;;;4982343;28;20619;-93
2022/04/16 03:17:31;;;;;;;8.00;5.17;;;2.20;89.00;;;;;;4999800;28;20296;-93
2022/04/16 03:19:57;;;;;;;8.40;4.77;;;2.10;89.00;;;;;;4981461;28;20201;-93
2022/04/16 03:22:23;;;;;;;6.60;5.20;;;2.00;89.00;;;;;;4981600;28;20179;-93
2022/04/16 03:24:49;;;;;;;10.80;5.93;;;2.10;89.00;;;;;;4983006;28;20185;-93
2022/04/16 03:27:16;;;;;;;6.37;4.83;;;2.00;89.00;;;;;;4984462;28;20205;-93
2022/04/16 03:29:41;;;;;;;8.43;5.33;;;2.00;89.00;;;;;;4984478;28;20229;-93
2022/04/16 03:32:07;;;;;;;10.27;5.03;;;2.00;88.90;;;;;;4983380;28;20271;-93
2022/04/16 03:34:33;;;;;;;6.23;4.67;;;1.90;88.80;;;;;;4981108;28;20193;-93
2022/04/16 03:36:58;;;;;;;8.43;4.90;;;1.80;88.80;;;;;;4980907;28;20260;-93
2022/04/16 03:39:24;;;;;;;7.50;4.43;;;1.80;88.80;;;;;;4981106;28;20206;-93
2022/04/16 03:41:50;;;;;;;5.73;4.47;;;1.80;88.70;;;;;;4982343;28;20180;-93
2022/04/16 03:44:16;;;;;;;6.77;4.57;;;1.70;88.50;;;;;;4980922;28;20178;-93
2022/04/16 03:46:41;;;;;;;6.43;4.57;;;1.70;88.60;;;;;;4980087;28;20217;-93
2022/04/16 03:49:07;;;;;;;7.70;3.70;;;1.60;88.50;;;;;;4980034;28;20183;-93
2022/04/16 03:51:32;;;;;;;5.20;4.00;;;1.70;88.50;;;;;;4979577;28;20558;-93
2022/04/16 03:59:59;;;;;;;7.37;4.17;;;1.70;88.60;;;;;;4979505;28;20182;-93
2022/04/16 04:02:12;;;;;;;7.00;4.27;;;1.90;88.30;;;;;;4997420;28;20194;-93
2022/04/16 04:04:37;;;;;;;10.47;4.33;;;1.90;88.20;;;;;;4980479;28;20180;-93
2022/04/16 04:07:03;;;;;;;6.97;4.00;;;1.90;87.90;;;;;;4979432;28;20254;-93
2022/04/16 04:09:28;;;;;;;5.53;4.23;;;1.90;87.80;;;;;;4979978;28;20189;-93
2022/04/16 04:11:54;;;;;;;5.37;4.00;;;1.90;87.80;;;;;;4979809;28;20191;-93
2022/04/16 04:14:20;;;;;;;8.50;4.20;;;2.00;87.70;;;;;;4979943;28;20190;-93
2022/04/16 04:16:45;;;;;;;4.60;3.80;;;1.90;87.60;;;;;;4979707;28;20223;-93
2022/04/16 04:19:11;;;;;;;9.40;3.93;;;1.80;87.40;;;;;;4979905;28;20708;-94
2022/04/16 04:21:36;;;;;;;5.10;3.77;;;1.80;87.30;;;;;;4979375;28;20648;-93
2022/04/16 04:24:02;;;;;;;6.13;4.27;;;1.70;87.20;;;;;;4979710;28;20188;-93
2022/04/16 04:26:27;;;;;;;6.70;4.30;;;1.70;87.10;;;;;;4979030;28;20699;-93
2022/04/16 04:28:54;;;;;;;5.23;3.90;;;1.80;87.10;;;;;;4979175;28;20643;-93
2022/04/16 04:31:20;;;;;;;7.37;4.90;;;1.90;87.00;;;;;;4979059;28;20181;-93
2022/04/16 04:33:45;;;;;;;8.83;4.70;;;1.90;86.80;;;;;;4979302;28;20228;-93
2022/04/16 04:36:11;;;;;;;7.37;5.13;;;1.90;86.70;;;;;;4979606;28;20407;-93
2022/04/16 04:38:37;;;;;;;7.43;4.80;;;1.90;86.70;;;;;;4980022;28;20561;-93
2022/04/16 04:41:04;;;;;;;6.70;4.10;;;1.90;86.70;;;;;;4984349;28;20220;-93
2022/04/16 04:43:29;;;;;;;6.33;4.80;;;1.80;86.80;;;;;;4984538;28;20204;-93
2022/04/16 04:45:55;;;;;;;7.13;4.70;;;1.80;86.80;;;;;;4982650;28;20204;-93
2022/04/16 04:48:21;;;;;;;7.30;4.37;;;1.70;86.90;;;;;;4980729;28;20554;-93
2022/04/16 04:50:46;;;;;;;8.73;4.30;;;1.70;87.00;;;;;;4980758;28;20181;-93
2022/04/16 04:53:12;;;;;;;6.63;4.77;;;1.50;87.20;;;;;;4980030;28;20272;-91
2022/04/16 04:55:38;;;;;;;8.03;5.30;;;1.40;87.60;;;;;;4981133;28;20210;-92
2022/04/16 04:58:03;;;;;;;7.03;5.67;;;1.30;87.90;;;;;;5005154;28;20189;-93
2022/04/16 05:00:29;;;;;;;7.90;5.17;;;1.30;88.30;;;;;;4983916;28;20281;-92
2022/04/16 05:02:57;;;;;;;8.57;6.03;;;1.40;88.50;;;;;;4986463;28;20207;-93
2022/04/16 05:05:22;;;;;;;11.87;5.93;;;1.50;88.80;;;;;;4984517;28;20172;-93
2022/04/16 05:07:48;;;;;;;9.90;5.97;;;1.50;88.90;;;;;;4984194;28;20210;-93
2022/04/16 05:10:13;;;;;;;12.07;7.40;;;1.50;89.10;;;;;;4988496;28;20178;-93
2022/04/16 05:12:39;;;;;;;10.43;6.93;;;1.50;89.30;;;;;;4997475;28;20200;-94
2022/04/16 05:15:05;;;;;;;14.23;7.77;;;1.60;89.50;;;;;;4987879;28;20190;-93
2022/04/16 05:17:31;;;;;;;12.23;6.90;;;1.80;89.50;;;;;;5000277;28;20204;-92
2022/04/16 05:19:57;;;;;;;9.97;7.00;;;1.80;89.60;;;;;;4992629;28;20199;-94
2022/04/16 05:22:22;;;;;;;9.80;6.90;;;1.90;89.60;;;;;;4998713;28;20181;-93
2022/04/16 05:24:48;;;;;;;11.23;6.73;;;2.00;89.70;;;;;;4989611;28;20190;-92
2022/04/16 05:30:06;;;;;;;10.93;7.37;;;2.20;89.80;;;;;;5024290;22;20240;-91
2022/04/16 05:35:09;;;;;;;14.10;7.53;;;2.40;89.90;;;;;;5067854;22;20235;-89
2022/04/16 05:37:36;;;;;;;11.30;6.70;;;2.50;89.80;;;;;;4998302;28;20195;-90
2022/04/16 05:40:06;;;;;;;16.23;7.43;;;2.60;89.80;;;;;;4998737;28;20300;-90
2022/04/16 05:42:32;;;;;;;12.73;6.83;;;2.80;89.80;;;;;;4996950;28;20174;-90
2022/04/16 05:45:02;;;;;;;10.20;7.27;;;2.80;89.70;;;;;;4996166;28;20190;-90
2022/04/16 05:47:28;;;;;;;10.33;6.60;;;2.90;89.70;;;;;;4997174;28;20341;-90
2022/04/16 05:49:54;;;;;;;9.67;6.70;;;3.00;89.60;;;;;;5001530;28;20641;-92
2022/04/16 05:52:22;;;;;;;11.47;7.33;;;3.20;89.50;;;;;;4998120;28;20188;-90
2022/04/16 05:54:48;;;;;;;21.67;9.67;;;3.30;89.40;;;;;;5015080;28;20177;-91
2022/04/16 05:57:14;;;;;;;14.73;9.57;;;3.50;89.30;;;;;;4996750;28;20295;-91
2022/04/16 05:59:39;;;;;;;17.63;9.00;;;3.60;89.20;;;;;;4996999;28;20306;-92
2022/04/16 06:02:05;;;;;;;13.47;8.47;;;3.70;88.80;;;;;;4998223;28;20179;-92
2022/04/16 06:04:30;;;;;;;14.77;7.37;;;3.80;88.70;;;;;;4997501;28;20177;-91
2022/04/16 06:06:56;;;;;;;10.73;7.17;;;3.90;88.40;;;;;;4997310;28;20286;-91
2022/04/16 06:09:22;;;;;;;10.20;6.20;;;4.10;88.10;;;;;;4997509;28;20285;-92
2022/04/16 06:11:48;;;;;;;9.60;6.37;;;4.30;87.80;;;;;;5016382;28;20185;-91
2022/04/16 06:14:15;;;;;;;14.73;5.77;;;4.40;87.70;;;;;;5001436;28;20272;-92
2022/04/16 06:16:40;;;;;;;9.53;5.03;;;4.50;87.30;;;;;;5001904;28;20679;-92
2022/04/16 06:19:06;;;;;;;7.53;4.17;;;4.70;86.80;;;;;;5001805;28;20184;-91
2022/04/16 06:21:31;;;;;;;5.13;3.70;;;5.00;86.20;;;;;;5002407;28;20178;-92
2022/04/16 06:23:57;;;;;;;3.97;2.97;;;5.20;85.80;;;;;;5002043;28;20178;-92
2022/04/16 06:26:25;;;;;;;4.60;3.07;;;5.30;84.90;;;;;;5001703;28;20569;-92
2022/04/16 06:28:51;;;;;;;3.50;2.57;;;5.40;83.00;;;;;;5001310;28;20189;-92
2022/04/16 06:31:17;;;;;;;8.13;2.70;;;5.60;81.80;;;;;;5000949;28;20597;-91
2022/04/16 06:33:43;;;;;;;2.63;2.43;;;5.70;81.20;;;;;;5000538;28;20224;-92
2022/04/16 06:36:08;;;;;;;3.70;2.60;;;5.70;79.70;;;;;;5001066;28;20205;-92
2022/04/16 06:38:34;;;;;;;5.07;2.43;;;5.80;79.10;;;;;;5000915;28;20185;-91
2022/04/16 06:40:59;;;;;;;2.90;2.60;;;5.80;78.90;;;;;;5000895;28;20245;-91
2022/04/16 06:43:25;;;;;;;5.27;3.20;;;5.90;78.70;;;;;;5001459;28;20202;-91
2022/04/16 06:45:50;;;;;;;2.57;2.00;;;6.00;78.90;;;;;;5000759;28;20219;-91
2022/04/16 06:48:16;;;;;;;3.90;2.40;;;6.00;76.90;;;;;;5000671;28;20175;-92
2022/04/16 06:50:41;;;;;;;5.83;2.63;;;6.10;77.70;;;;;;5001241;28;20179;-92
2022/04/16 06:53:07;;;;;;;4.70;2.60;;;6.20;78.20;;;;;;5000208;28;20183;-92
2022/04/16 06:55:32;;;;;;;6.43;2.60;;;6.20;77.10;;;;;;5000401;28;20552;-92
2022/04/16 06:57:58;;;;;;;1.80;1.70;;;6.40;78.00;;;;;;5000688;28;20206;-92
2022/04/16 07:00:23;;;;;;;4.27;2.37;;;6.30;74.40;;;;;;5000141;28;20204;-92
2022/04/16 07:02:49;;;;;;;5.53;2.10;;;6.40;74.60;;;;;;5000398;28;20179;-92
2022/04/16 07:05:15;;;;;;;6.33;2.43;;;6.50;75.20;;;;;;5000102;28;20529;-92
2022/04/16 07:07:40;;;;;;;3.10;2.17;;;6.50;75.00;;;;;;5000250;28;20196;-92
2022/04/16 07:10:07;;;;;;;4.57;1.90;;;6.60;75.80;;;;;;5000174;28;20529;-92
2022/04/16 07:12:32;;;;;;;3.03;1.87;;;6.70;74.70;;;;;;4999690;28;20183;-92
2022/04/16 07:14:58;;;;;;;2.00;1.60;;;6.70;73.10;;;;;;5000455;28;20180;-92
2022/04/16 07:17:24;;;;;;;3.07;1.90;;;6.80;72.50;;;;;;4999220;28;20254;-91
2022/04/16 07:19:49;;;;;;;1.90;1.70;;;6.80;72.50;;;;;;4999442;28;20304;-92
2022/04/16 07:22:19;;;;;;;4.57;2.13;;;6.90;72.40;;;;;;5000087;28;20209;-93
2022/04/16 07:24:45;;;;;;;2.57;1.90;;;6.90;71.40;;;;;;4999779;28;20173;-92
2022/04/16 07:27:11;;;;;;;4.60;2.43;;;7.00;70.20;;;;;;4999607;28;20571;-92
2022/04/16 07:29:36;;;;;;;3.83;2.20;;;7.20;72.60;;;;;;4999107;28;20183;-92
2022/04/16 07:32:02;;;;;;;4.63;2.10;;;7.30;71.90;;;;;;4998832;28;20202;-92
2022/04/16 07:34:28;;;;;;;4.37;1.90;;;7.30;70.30;;;;;;4999210;28;20254;-92
2022/04/16 07:36:53;;;;;;;2.83;2.40;;;7.30;70.20;;;;;;5000228;28;20201;-92
2022/04/16 07:39:19;;;;;;;5.13;3.53;;;7.30;69.90;;;;;;4999880;28;20201;-92
2022/04/16 07:41:44;;;;;;;3.70;1.97;;;7.30;70.00;;;;;;4998765;28;20542;-92
2022/04/16 07:44:10;;;;;;;2.80;2.30;;;7.50;69.50;;;;;;4998648;28;20173;-92
2022/04/16 07:46:36;;;;;;;6.47;2.10;;;7.60;69.00;;;;;;4998473;28;20698;-92
2022/04/16 07:49:02;;;;;;;3.00;2.37;;;7.90;70.90;;;;;;4998514;28;20674;-92
2022/04/16 07:51:29;;;;;;;5.00;2.27;;;7.80;66.40;;;;;;4998481;28;20173;-92
2022/04/16 07:53:56;;;;;;;4.60;2.30;;;8.00;66.80;;;;;;5016411;28;20176;-92
2022/04/16 07:56:22;;;;;;;3.60;2.33;;;8.10;65.00;;;;;;4998812;28;20193;-92
2022/04/16 07:58:48;;;;;;;3.43;2.23;;;8.20;66.20;;;;;;5016102;28;20585;-92
2022/04/16 08:01:13;;;;;;;5.93;2.83;;;8.20;65.00;;;;;;4998649;28;20205;-92
2022/04/16 08:03:39;;;;;;;7.67;2.33;;;8.20;63.50;;;;;;4998935;28;20332;-92
2022/04/16 08:06:05;;;;;;;2.30;2.07;;;8.30;65.00;;;;;;4998774;28;20193;-92
2022/04/16 08:08:30;;;;;;;2.63;1.70;;;8.40;65.20;;;;;;4998243;28;20189;-92
2022/04/16 08:10:56;;;;;;;2.57;2.00;;;8.30;63.20;;;;;;4998428;28;20235;-92
2022/04/16 08:13:23;;;;;;;5.63;1.93;;;8.30;62.80;;;;;;4998870;28;20268;-92
2022/04/16 08:15:49;;;;;;;4.80;2.37;;;8.30;63.60;;;;;;4998199;28;20267;-92
2022/04/16 08:18:15;;;;;;;4.10;2.30;;;8.50;63.90;;;;;;4998460;28;20181;-92
2022/04/16 08:20:41;;;;;;;2.50;1.73;;;8.60;63.60;;;;;;4998355;28;20624;-92
2022/04/16 08:23:07;;;;;;;4.43;2.40;;;8.70;63.40;;;;;;4998119;28;20212;-92
2022/04/16 08:27:59;;;;;;;2.03;1.67;;;8.80;60.80;;;;;;5015304;28;20197;-92
2022/04/16 08:30:25;;;;;;;3.53;2.20;;;9.10;61.20;;;;;;4998024;28;20675;-92
2022/04/16 08:32:51;;;;;;;4.90;2.57;;;9.10;62.20;;;;;;4997802;28;20193;-92
2022/04/16 08:35:18;;;;;;;6.13;2.93;;;9.20;60.80;;;;;;4997974;28;20659;-92
2022/04/16 08:37:45;;;;;;;5.60;2.60;;;9.10;62.00;;;;;;4998053;28;20574;-92
2022/04/16 08:40:12;;;;;;;1.70;1.60;;;9.00;61.20;;;;;;4997955;28;20255;-92
2022/04/16 08:42:39;;;;;;;1.70;1.60;;;9.30;57.80;;;;;;4998252;28;20177;-92
2022/04/16 08:45:07;;;;;;;2.10;1.90;;;9.30;57.30;;;;;;4997680;28;20239;-92
2022/04/16 08:47:33;;;;;;;7.90;2.97;;;9.40;54.70;;;;;;4997299;28;20197;-91
2022/04/16 08:50:00;;;;;;;3.40;2.27;;;9.50;54.30;;;;;;4997303;28;20738;-92
2022/04/16 08:52:31;;;;;;;1.90;1.53;;;9.60;57.90;;;;;;4996964;28;20589;-91
2022/04/16 08:54:58;;;;;;;2.30;1.60;;;9.60;52.40;;;;;;4997017;28;20279;-91
2022/04/16 08:57:24;;;;;;;2.90;1.40;;;9.70;53.10;;;;;;4996761;28;20204;-91
2022/04/16 08:59:53;;;;;;;3.03;1.53;;;9.80;54.10;;;;;;4997872;28;20296;-91
2022/04/16 09:02:20;;;;;;;3.90;1.77;;;10.10;54.80;;;;;;5014443;28;20180;-91
2022/04/16 09:04:47;;;;;;;2.27;1.60;;;10.10;52.10;;;;;;5020173;28;20181;-90
2022/04/16 09:07:12;;;;;;;2.20;2.03;;;10.00;52.00;;;;;;4997426;28;20197;-91
2022/04/16 09:09:38;;;;;;;2.93;1.50;;;9.80;52.20;;;;;;5000185;28;20234;-92
2022/04/16 09:12:18;;;;;;;5.57;1.70;;;10.00;53.40;;;;;;4997288;28;20204;-92
2022/04/16 09:14:45;;;;;;;1.83;1.40;;;10.10;54.80;;;;;;4996877;28;20717;-91
2022/04/16 09:17:16;;;;;;;4.30;1.70;;;10.00;50.50;;;;;;4997496;28;20193;-91
2022/04/16 09:19:41;;;;;;;1.47;1.30;;;10.10;52.20;;;;;;4996509;28;20204;-91
2022/04/16 09:22:10;;;;;;;2.37;1.77;;;10.40;52.40;;;;;;5013917;28;20184;-92
2022/04/16 09:24:47;;;;;;;1.70;1.40;;;10.60;53.70;;;;;;4997127;28;20236;-92
2022/04/16 09:27:12;;;;;;;2.37;1.43;;;10.60;51.50;;;;;;4996792;28;20250;-91
2022/04/16 09:29:40;;;;;;;2.13;1.50;;;10.50;50.90;;;;;;4996593;28;20189;-91
2022/04/16 09:32:06;;;;;;;1.20;1.10;;;10.60;49.90;;;;;;4996347;28;20558;-91
2022/04/16 09:34:32;;;;;;;2.43;1.23;;;10.60;50.10;;;;;;4996133;28;20628;-91
2022/04/16 09:36:58;;;;;;;3.50;1.67;;;10.50;48.60;;;;;;4996047;28;20228;-91
2022/04/16 09:39:25;;;;;;;2.83;1.50;;;10.70;50.10;;;;;;4996120;28;20183;-91
2022/04/16 09:41:51;;;;;;;1.50;1.40;;;10.50;50.60;;;;;;4996668;28;20636;-92
2022/04/16 09:44:18;;;;;;;0.93;0.93;;;10.50;49.50;;;;;;5016922;28;20208;-92
2022/04/16 09:46:45;;;;;;;1.73;1.20;;;10.70;48.70;;;;;;5018250;28;20200;-92
2022/04/16 09:49:13;;;;;;;1.80;1.47;;;10.80;50.80;;;;;;5010613;28;20188;-91
2022/04/16 09:51:42;;;;;;;1.80;1.33;;;10.80;49.80;;;;;;4999039;28;20173;-91
2022/04/16 09:54:09;;;;;;;1.50;1.40;;;10.90;50.20;;;;;;4997139;28;20592;-91
2022/04/16 09:56:36;;;;;;;1.87;1.50;;;10.70;46.40;;;;;;5015268;28;20203;-91
2022/04/16 09:59:12;;;;;;;2.83;1.60;;;10.80;50.20;;;;;;4996573;28;20644;-92
2022/04/16 10:01:38;;;;;;;1.50;1.40;;;11.10;48.80;;;;;;4996060;28;20231;-92
2022/04/16 10:04:08;;;;;;;1.83;1.30;;;11.10;48.60;;;;;;4996311;28;20204;-91
2022/04/16 10:06:34;;;;;;;3.23;1.80;;;11.20;48.80;;;;;;4996189;28;20240;-92
2022/04/16 10:09:13;;;;;;;1.50;1.20;;;11.30;49.50;;;;;;4996370;28;20185;-92
2022/04/16 10:14:37;;;;;;;3.20;1.00;;;11.50;49.30;;;;;;5014615;28;20367;-92
2022/04/16 10:17:28;;;;;;;2.10;1.13;;;11.50;48.20;;;;;;4996024;28;20204;-91
2022/04/16 10:20:04;;;;;;;2.63;1.67;;;11.70;47.90;;;;;;4996273;28;20268;-91
2022/04/16 10:22:29;;;;;;;2.90;1.47;;;11.80;46.50;;;;;;4996094;28;20569;-91
2022/04/16 10:24:58;;;;;;;5.10;1.60;;;11.80;47.40;;;;;;4996594;28;20178;-92
2022/04/16 10:27:37;;;;;;;2.20;1.50;;;11.90;46.00;;;;;;4995869;28;20201;-92
2022/04/16 10:30:11;;;;;;;2.20;1.40;;;11.70;46.30;;;;;;4995811;28;20300;-91
2022/04/16 10:32:39;;;;;;;2.30;1.47;;;12.00;48.80;;;;;;4997203;28;20212;-92
2022/04/16 10:35:12;;;;;;;2.47;1.70;;;12.00;46.20;;;;;;4996340;28;20794;-92
2022/04/16 10:37:39;;;;;;;3.03;1.77;;;12.20;46.20;;;;;;4996188;28;20221;-90
2022/04/16 10:40:25;;;;;;;1.60;1.47;;;12.20;46.50;;;;;;4996670;28;20181;-92
2022/04/16 10:42:59;;;;;;;2.10;1.53;;;12.00;44.80;;;;;;4997347;28;20177;-92
2022/04/16 10:45:25;;;;;;;1.63;1.40;;;12.00;48.10;;;;;;4996316;28;20663;-92
2022/04/16 10:47:54;;;;;;;2.17;1.40;;;12.10;47.70;;;;;;4995849;28;20208;-90
2022/04/16 10:50:21;;;;;;;2.97;1.57;;;12.00;46.00;;;;;;4995600;28;20213;-92
2022/04/16 10:53:01;;;;;;;2.03;1.63;;;11.80;45.60;;;;;;4996860;28;20264;-90
2022/04/16 10:55:30;;;;;;;2.40;1.67;;;11.70;45.10;;;;;;4996054;28;20646;-90
2022/04/16 10:57:58;;;;;;;2.07;1.60;;;11.70;45.50;;;;;;4995749;28;20197;-90
2022/04/16 11:00:36;;;;;;;2.50;1.47;;;12.10;46.40;;;;;;4998763;28;20186;-90
2022/04/16 11:03:27;;;;;;;3.00;1.70;;;12.40;45.80;;;;;;4999213;28;20244;-90
2022/04/16 11:06:03;;;;;;;5.60;1.80;;;12.60;46.80;;;;;;4999326;28;20631;-91
2022/04/16 11:08:29;;;;;;;1.77;1.53;;;12.40;46.90;;;;;;4999099;28;20177;-91
2022/04/16 11:11:02;;;;;;;2.13;1.57;;;12.20;44.60;;;;;;4999260;28;20232;-92
2022/04/16 11:13:32;;;;;;;2.27;1.63;;;12.00;44.10;;;;;;4999243;28;20659;-92
2022/04/16 11:15:58;;;;;;;2.87;1.80;;;11.90;44.20;;;;;;4999377;28;20232;-92
2022/04/16 11:18:43;;;;;;;6.50;1.87;;;12.20;45.20;;;;;;5000486;28;20196;-92
2022/04/16 11:21:13;;;;;;;2.23;1.60;;;12.30;46.70;;;;;;5000916;28;20231;-92
2022/04/16 11:23:43;;;;;;;1.67;1.57;;;12.70;46.60;;;;;;4999948;28;20181;-92
2022/04/16 11:34:28;;;;;;;4.37;2.17;;;13.10;47.70;;;;;;5016659;28;20200;-92
2022/04/16 11:36:53;;;;;;;2.80;1.97;;;13.00;46.00;;;;;;5001783;28;20292;-92
2022/04/16 11:39:25;;;;;;;2.50;2.00;;;12.90;43.80;;;;;;5000526;28;20166;-92
2022/04/16 11:41:52;;;;;;;3.23;1.90;;;12.80;45.30;;;;;;4998782;28;20211;-93
2022/04/16 11:44:28;;;;;;;2.60;2.20;;;12.80;45.50;;;;;;4998888;28;20177;-92
2022/04/16 11:46:54;;;;;;;3.87;2.10;;;12.80;47.00;;;;;;4998654;28;20201;-92
2022/04/16 11:49:20;;;;;;;3.07;2.30;;;12.60;44.80;;;;;;4998630;28;20183;-92
2022/04/16 11:51:47;;;;;;;4.00;2.50;;;12.60;45.80;;;;;;4998950;28;20485;-92
2022/04/16 11:54:12;;;;;;;4.73;2.10;;;12.60;44.00;;;;;;4998878;28;20169;-92
2022/04/16 11:56:38;;;;;;;2.33;2.13;;;12.80;44.50;;;;;;4999276;28;20194;-92
2022/04/16 11:59:04;;;;;;;3.80;2.37;;;13.20;47.20;;;;;;4999700;28;20182;-93
2022/04/16 12:01:29;;;;;;;2.23;2.03;;;13.30;48.80;;;;;;4998448;28;20181;-91
2022/04/16 12:04:05;;;;;;;4.50;2.40;;;13.00;43.60;;;;;;4999637;28;20239;-91
2022/04/16 12:06:35;;;;;;;2.73;2.10;;;12.90;44.20;;;;;;4998452;28;20553;-92
2022/04/16 12:09:01;;;;;;;2.80;2.47;;;13.00;43.50;;;;;;5000550;28;20526;-92
2022/04/16 12:11:28;;;;;;;5.00;2.20;;;12.80;43.80;;;;;;4998090;28;20205;-92
2022/04/16 12:13:54;;;;;;;2.17;1.70;;;12.70;42.40;;;;;;5015936;28;20184;-92
2022/04/16 12:16:20;;;;;;;2.13;1.93;;;13.00;45.10;;;;;;5016390;28;20208;-92
2022/04/16 12:18:48;;;;;;;2.47;2.07;;;12.90;43.40;;;;;;4998306;28;20189;-91
2022/04/16 12:21:17;;;;;;;2.70;2.00;;;13.10;46.20;;;;;;4999122;28;20631;-91
2022/04/16 12:23:44;;;;;;;2.10;1.97;;;13.00;42.70;;;;;;4998348;28;20224;-92
2022/04/16 12:26:17;;;;;;;4.93;2.30;;;12.90;40.60;;;;;;4998292;28;20194;-92
2022/04/16 12:28:51;;;;;;;2.30;1.80;;;12.90;42.40;;;;;;4998248;28;20312;-91
2022/04/16 12:31:27;;;;;;;2.40;2.20;;;13.10;41.10;;;;;;4998392;28;20204;-92
2022/04/16 12:33:53;;;;;;;3.50;2.53;;;13.20;43.40;;;;;;4998313;28;20192;-91
2022/04/16 12:36:18;;;;;;;3.60;2.20;;;13.20;45.10;;;;;;4997994;28;20746;-91
2022/04/16 12:38:44;;;;;;;3.17;2.43;;;13.20;45.40;;;;;;5015347;28;20174;-91
2022/04/16 12:41:10;;;;;;;2.73;2.40;;;13.20;45.10;;;;;;5015517;28;20547;-91
2022/04/16 12:43:37;;;;;;;3.70;2.43;;;13.10;43.40;;;;;;4997955;28;20186;-91
2022/04/16 12:46:02;;;;;;;2.10;1.90;;;13.30;43.30;;;;;;4997908;28;20204;-92
2022/04/16 12:48:28;;;;;;;4.80;2.30;;;13.30;40.80;;;;;;4997589;28;20177;-92
2022/04/16 12:50:54;;;;;;;3.87;2.33;;;13.40;41.00;;;;;;4997909;28;20205;-91
2022/04/16 12:53:19;;;;;;;2.77;1.90;;;13.40;44.40;;;;;;4998008;28;20181;-92
2022/04/16 12:55:45;;;;;;;2.30;2.10;;;13.40;42.40;;;;;;4997456;28;20200;-92
2022/04/16 12:58:11;;;;;;;2.97;2.20;;;13.40;43.10;;;;;;5015405;28;20248;-91
2022/04/16 13:00:37;;;;;;;2.03;1.77;;;13.50;40.20;;;;;;4999142;28;20182;-92
2022/04/16 13:03:02;;;;;;;3.67;2.10;;;13.70;43.70;;;;;;4997903;28;20595;-91
2022/04/16 13:05:32;;;;;;;4.43;2.30;;;13.50;42.40;;;;;;4997373;28;20726;-91
2022/04/16 13:07:59;;;;;;;3.00;2.33;;;13.40;41.50;;;;;;4997176;28;20201;-92
2022/04/16 13:10:25;;;;;;;3.43;2.30;;;13.30;42.00;;;;;;4997587;28;20675;-92
2022/04/16 13:12:51;;;;;;;3.20;2.53;;;13.30;43.30;;;;;;4998044;28;20236;-92
2022/04/16 13:15:17;;;;;;;3.43;2.10;;;13.20;42.60;;;;;;5015159;28;20173;-91
2022/04/16 13:17:42;;;;;;;2.97;2.10;;;13.30;46.20;;;;;;4997125;28;20198;-92
2022/04/16 13:20:09;;;;;;;2.50;2.03;;;13.50;43.00;;;;;;5017228;28;20186;-91
2022/04/16 13:22:34;;;;;;;1.90;1.70;;;13.60;41.30;;;;;;4998665;28;20181;-93